createdAt,value
2018-10-17T00:00:23.441Z,41.50
2018-10-17T00:02:54.663Z,51.40
2018-10-17T00:05:23.660Z,47.63
2018-10-17T00:07:53.526Z,41.80
2018-10-17T00:10:23.657Z,58.63
2018-10-17T00:12:52.995Z,47.53
2018-10-17T00:15:22.598Z,40.93
2018-10-17T00:17:52.569Z,44.30
2018-10-17T00:20:21.717Z,44.77
2018-10-17T00:22:51.144Z,47.03
2018-10-17T00:25:20.238Z,43.37
2018-10-17T00:27:50.177Z,50.63
2018-10-17T00:30:19.829Z,43.13
2018-10-17T00:32:49.907Z,46.40
2018-10-17T00:35:19.353Z,42.00
2018-10-17T00:37:49.583Z,44.43
2018-10-17T00:40:18.568Z,42.70
2018-10-17T00:42:48.149Z,39.90
2018-10-17T00:45:17.228Z,47.57
2018-10-17T00:47:46.808Z,42.03
2018-10-17T00:50:16.888Z,48.70
2018-10-17T00:52:46.909Z,41.30
2018-10-17T00:55:16.303Z,48.90
2018-10-17T00:57:45.650Z,47.50
2018-10-17T01:00:17.024Z,40.83
2018-10-17T01:02:47.082Z,51.33
2018-10-17T01:05:18.160Z,42.13
2018-10-17T01:07:48.206Z,50.63
2018-10-17T01:10:17.692Z,40.50
2018-10-17T01:12:47.414Z,44.53
2018-10-17T01:15:17.586Z,42.17
2018-10-17T01:17:47.278Z,47.57
2018-10-17T01:20:17.384Z,40.33
2018-10-17T01:22:46.641Z,47.23
2018-10-17T01:25:15.761Z,42.10
2018-10-17T01:27:45.477Z,42.83
2018-10-17T01:30:14.478Z,38.40
2018-10-17T01:32:43.753Z,41.33
2018-10-17T01:35:13.152Z,45.07
2018-10-17T01:37:43.443Z,44.13
2018-10-17T01:40:12.389Z,44.17
2018-10-17T01:42:43.188Z,41.83
2018-10-17T01:45:13.322Z,53.10
2018-10-17T01:47:42.762Z,45.13
2018-10-17T01:50:12.823Z,55.40
2018-10-17T01:52:42.826Z,53.20
2018-10-17T01:55:12.012Z,46.63
2018-10-17T01:57:41.534Z,49.07
2018-10-17T02:00:11.414Z,53.90
2018-10-17T02:02:41.098Z,49.00
2018-10-17T02:05:10.157Z,55.23
2018-10-17T02:07:39.830Z,50.90
2018-10-17T02:10:09.540Z,62.63
2018-10-17T02:12:39.450Z,41.10
2018-10-17T02:15:08.645Z,50.13
2018-10-17T02:17:37.542Z,56.70
2018-10-17T02:20:07.453Z,44.53
2018-10-17T02:22:36.859Z,42.97
2018-10-17T02:25:07.435Z,55.17
2018-10-17T02:27:36.438Z,45.10
2018-10-17T02:30:06.146Z,49.63
2018-10-17T02:32:34.981Z,56.53
2018-10-17T02:35:09.848Z,47.03
2018-10-17T02:37:38.738Z,45.10
2018-10-17T02:40:08.317Z,53.63
2018-10-17T02:42:38.053Z,47.83
2018-10-17T02:45:08.271Z,43.53
2018-10-17T02:47:39.209Z,52.97
2018-10-17T02:50:14.874Z,51.40
2018-10-17T02:52:43.967Z,58.03
2018-10-17T02:55:14.626Z,48.80
2018-10-17T02:57:43.595Z,49.87
2018-10-17T03:00:13.471Z,50.00
2018-10-17T03:02:43.446Z,55.07
2018-10-17T03:05:13.391Z,71.63
2018-10-17T03:07:43.105Z,55.57
2018-10-17T03:10:12.106Z,49.77
2018-10-17T03:12:41.512Z,51.83
2018-10-17T03:15:11.108Z,48.63
2018-10-17T03:17:41.047Z,50.10
2018-10-17T03:20:11.427Z,52.10
2018-10-17T03:22:40.622Z,75.70
2018-10-17T03:25:10.662Z,73.53
2018-10-17T03:27:39.928Z,72.43
2018-10-17T03:30:09.395Z,74.73
2018-10-17T03:32:39.090Z,78.50
2018-10-17T03:35:09.511Z,76.40
2018-10-17T03:37:38.755Z,78.97
2018-10-17T03:40:08.677Z,64.20
2018-10-17T03:42:37.888Z,65.07
2018-10-17T03:45:07.968Z,73.23
2018-10-17T03:47:38.731Z,61.90
2018-10-17T03:50:08.623Z,53.97
2018-10-17T03:52:38.552Z,50.93
2018-10-17T03:55:08.154Z,56.00
2018-10-17T03:57:39.255Z,57.53
2018-10-17T04:00:09.967Z,52.23
2018-10-17T04:02:39.302Z,59.17
2018-10-17T04:05:09.752Z,53.33
2018-10-17T04:07:39.646Z,58.33
2018-10-17T04:10:09.291Z,43.73
2018-10-17T04:12:38.751Z,52.77
2018-10-17T04:15:09.155Z,49.40
2018-10-17T04:17:39.401Z,54.07
2018-10-17T04:20:09.592Z,52.23
2018-10-17T04:22:43.067Z,57.83
2018-10-17T04:25:12.754Z,53.13
2018-10-17T04:27:42.141Z,48.53
2018-10-17T04:30:11.888Z,52.10
2018-10-17T04:32:41.794Z,52.67
2018-10-17T04:35:11.432Z,59.83
2018-10-17T04:37:41.088Z,52.33
2018-10-17T04:40:10.953Z,59.37
2018-10-17T04:42:40.961Z,51.07
2018-10-17T04:45:10.520Z,57.80
2018-10-17T04:47:39.605Z,49.33
2018-10-17T04:50:10.193Z,54.17
2018-10-17T04:52:40.824Z,53.60
2018-10-17T04:55:11.367Z,56.57
2018-10-17T04:57:41.216Z,56.07
2018-10-17T05:00:13.474Z,46.23
2018-10-17T05:02:44.355Z,60.60
2018-10-17T05:05:13.947Z,64.23
2018-10-17T05:07:43.436Z,49.90
2018-10-17T05:10:12.989Z,50.13
2018-10-17T05:12:42.191Z,57.90
2018-10-17T05:15:11.968Z,57.97
2018-10-17T05:17:41.524Z,46.67
2018-10-17T05:20:11.868Z,53.30
2018-10-17T05:22:42.052Z,59.17
2018-10-17T05:25:11.091Z,61.83
2018-10-17T05:27:41.067Z,54.20
2018-10-17T05:30:10.665Z,59.40
2018-10-17T05:32:40.205Z,50.53
2018-10-17T05:35:10.168Z,56.17
2018-10-17T05:37:39.361Z,58.60
2018-10-17T05:40:09.439Z,54.57
2018-10-17T05:42:39.688Z,52.67
2018-10-17T05:45:09.387Z,54.80
2018-10-17T05:47:38.743Z,56.10
2018-10-17T05:50:08.850Z,54.57
2018-10-17T05:52:39.352Z,59.90
2018-10-17T05:55:08.527Z,62.43
2018-10-17T05:57:38.770Z,61.47
2018-10-17T06:00:08.553Z,53.57
2018-10-17T06:02:38.833Z,68.63
2018-10-17T06:05:09.643Z,56.77
2018-10-17T06:07:40.321Z,76.17
2018-10-17T06:10:10.635Z,62.73
2018-10-17T06:12:41.458Z,63.03
2018-10-17T06:15:11.626Z,71.23
2018-10-17T06:17:41.992Z,62.27
2018-10-17T06:20:13.224Z,85.83
2018-10-17T06:22:42.967Z,60.10
2018-10-17T06:25:12.278Z,55.93
2018-10-17T06:27:42.355Z,65.67
2018-10-17T06:30:11.939Z,62.67
2018-10-17T06:32:41.625Z,65.97
2018-10-17T06:35:11.349Z,66.93
2018-10-17T06:37:41.625Z,56.87
2018-10-17T06:40:11.214Z,68.70
2018-10-17T06:42:40.587Z,65.77
2018-10-17T06:45:10.540Z,58.10
2018-10-17T06:47:41.131Z,56.57
2018-10-17T06:50:10.749Z,78.93
2018-10-17T06:52:40.279Z,57.20
2018-10-17T06:55:09.799Z,70.23
2018-10-17T06:57:40.398Z,66.07
2018-10-17T07:00:10.431Z,63.27
2018-10-17T07:02:40.482Z,74.07
2018-10-17T07:05:10.725Z,66.83
2018-10-17T07:07:40.497Z,67.73
2018-10-17T07:10:11.007Z,62.40
2018-10-17T07:12:41.461Z,75.87
2018-10-17T07:15:11.506Z,81.33
2018-10-17T07:17:40.666Z,67.63
2018-10-17T07:20:10.652Z,61.87
2018-10-17T07:22:40.718Z,84.73
2018-10-17T07:25:10.465Z,74.93
2018-10-17T07:27:40.563Z,62.43
2018-10-17T07:30:10.850Z,72.93
2018-10-17T07:32:40.539Z,73.73
2018-10-17T07:35:11.216Z,68.27
2018-10-17T07:37:41.188Z,67.40
2018-10-17T07:40:10.136Z,61.70
2018-10-17T07:42:39.744Z,81.50
2018-10-17T07:45:09.020Z,92.83
2018-10-17T07:47:38.742Z,78.60
2018-10-17T07:50:09.016Z,71.90
2018-10-17T07:52:39.200Z,67.20
2018-10-17T07:55:09.748Z,80.80
2018-10-17T07:57:39.423Z,81.47
2018-10-17T08:00:14.139Z,79.93
2018-10-17T08:02:43.631Z,75.23
2018-10-17T08:05:14.490Z,78.23
2018-10-17T08:07:44.948Z,78.63
2018-10-17T08:10:14.140Z,81.60
2018-10-17T08:12:44.329Z,80.30
2018-10-17T08:15:13.391Z,86.60
2018-10-17T08:17:42.617Z,89.03
2018-10-17T08:20:13.323Z,89.13
2018-10-17T08:22:43.266Z,76.57
2018-10-17T08:25:13.593Z,68.43
2018-10-17T08:27:43.767Z,84.90
2018-10-17T08:30:13.497Z,108.80
2018-10-17T08:32:42.932Z,75.53
2018-10-17T08:35:12.709Z,88.33
2018-10-17T08:37:42.067Z,58.80
2018-10-17T08:40:11.695Z,72.43
2018-10-17T08:42:41.168Z,72.83
2018-10-17T08:45:11.235Z,59.63
2018-10-17T08:47:40.984Z,77.73
2018-10-17T08:50:10.848Z,63.00
2018-10-17T08:52:40.157Z,74.23
2018-10-17T08:55:10.625Z,78.73
2018-10-17T08:57:40.959Z,63.67
2018-10-17T09:00:10.420Z,68.93
2018-10-17T09:02:40.499Z,65.57
2018-10-17T09:05:09.541Z,93.27
2018-10-17T09:07:40.234Z,79.20
2018-10-17T09:10:10.050Z,67.60
2018-10-17T09:12:40.034Z,75.90
2018-10-17T09:15:09.681Z,67.53
2018-10-17T09:17:39.476Z,70.40
2018-10-17T09:20:09.504Z,78.67
2018-10-17T09:22:39.043Z,68.73
2018-10-17T09:25:09.317Z,68.60
2018-10-17T09:27:39.004Z,67.30
2018-10-17T09:30:09.958Z,78.50
2018-10-17T09:32:43.591Z,71.50
2018-10-17T09:35:13.017Z,56.70
2018-10-17T09:37:43.187Z,53.67
2018-10-17T09:40:13.048Z,56.90
2018-10-17T09:42:42.147Z,62.13
2018-10-17T09:45:11.991Z,57.43
2018-10-17T09:47:41.852Z,56.50
2018-10-17T09:50:11.921Z,60.53
2018-10-17T09:52:41.218Z,61.47
2018-10-17T09:55:12.065Z,54.60
2018-10-17T09:57:41.729Z,65.27
2018-10-17T10:00:16.272Z,50.50
2018-10-17T10:02:45.568Z,56.20
2018-10-17T10:05:14.623Z,51.47
2018-10-17T10:07:43.786Z,78.87
2018-10-17T10:10:12.737Z,79.23
2018-10-17T10:12:42.158Z,69.00
2018-10-17T10:15:12.165Z,60.93
2018-10-17T10:17:41.367Z,60.67
2018-10-17T10:20:12.117Z,75.93
2018-10-17T10:22:41.125Z,53.73
2018-10-17T10:25:10.362Z,58.57
2018-10-17T10:27:40.141Z,61.00
2018-10-17T10:30:10.421Z,68.53
2018-10-17T10:32:40.287Z,61.23
2018-10-17T10:35:10.135Z,73.60
2018-10-17T10:37:39.846Z,68.53
2018-10-17T10:40:09.938Z,68.20
2018-10-17T10:42:39.396Z,71.00
2018-10-17T10:45:08.987Z,79.23
2018-10-17T10:47:38.731Z,84.17
2018-10-17T10:50:09.702Z,61.77
2018-10-17T10:52:39.778Z,59.80
2018-10-17T10:55:08.756Z,71.13
2018-10-17T10:57:38.103Z,74.67
2018-10-17T11:00:08.499Z,69.73
2018-10-17T11:02:37.471Z,64.03
2018-10-17T11:05:06.589Z,51.20
2018-10-17T11:07:36.506Z,58.00
2018-10-17T11:10:05.996Z,55.00
2018-10-17T11:12:35.859Z,78.40
2018-10-17T11:15:06.001Z,49.47
2018-10-17T11:17:34.877Z,57.70
2018-10-17T11:20:04.256Z,48.40
2018-10-17T11:22:33.223Z,48.37
2018-10-17T11:25:04.571Z,63.23
2018-10-17T11:27:33.884Z,59.27
2018-10-17T11:30:02.896Z,68.67
2018-10-17T11:32:31.834Z,74.17
2018-10-17T11:35:08.030Z,55.03
2018-10-17T11:37:38.627Z,66.83
2018-10-17T11:40:08.156Z,61.23
2018-10-17T11:42:37.286Z,62.57
2018-10-17T11:45:07.105Z,43.40
2018-10-17T11:47:36.383Z,60.33
2018-10-17T11:50:07.109Z,57.40
2018-10-17T11:52:36.160Z,52.20
2018-10-17T11:55:05.431Z,77.83
2018-10-17T11:57:34.687Z,46.70
2018-10-17T12:00:04.295Z,52.60
2018-10-17T12:02:33.594Z,43.30
2018-10-17T12:05:03.153Z,44.60
2018-10-17T12:07:32.618Z,45.73
2018-10-17T12:10:03.290Z,61.23
2018-10-17T12:12:32.295Z,63.23
2018-10-17T12:15:01.293Z,43.73
2018-10-17T12:17:31.213Z,56.13
2018-10-17T12:20:01.104Z,40.93
2018-10-17T12:22:30.962Z,43.40
2018-10-17T12:25:01.312Z,51.50
2018-10-17T12:27:30.544Z,37.93
2018-10-17T12:30:00.757Z,37.13
2018-10-17T12:32:29.954Z,46.00
2018-10-17T12:35:00.404Z,60.57
2018-10-17T12:37:29.945Z,43.50
2018-10-17T12:39:59.874Z,47.83
2018-10-17T12:42:29.679Z,35.87
2018-10-17T12:45:00.049Z,45.77
2018-10-17T12:47:29.727Z,54.87
2018-10-17T12:49:59.588Z,74.60
2018-10-17T12:52:30.235Z,48.23
2018-10-17T12:54:59.179Z,40.80
2018-10-17T12:57:29.208Z,64.90
2018-10-17T12:59:59.200Z,38.47
2018-10-17T13:02:28.424Z,44.37
2018-10-17T13:04:58.297Z,49.93
2018-10-17T13:07:28.966Z,55.70
2018-10-17T13:09:59.300Z,38.67
2018-10-17T13:12:28.908Z,51.90
2018-10-17T13:14:58.917Z,49.40
2018-10-17T13:17:28.668Z,44.57
2018-10-17T13:19:58.588Z,42.33
2018-10-17T13:22:27.976Z,44.57
2018-10-17T13:24:58.362Z,51.40
2018-10-17T13:27:28.776Z,40.50
2018-10-17T13:29:58.915Z,40.47
2018-10-17T13:32:28.592Z,49.43
2018-10-17T13:34:59.579Z,41.33
2018-10-17T13:37:30.170Z,40.70
2018-10-17T13:40:01.702Z,48.07
2018-10-17T13:42:31.350Z,46.87
2018-10-17T13:45:00.689Z,36.27
2018-10-17T13:47:29.730Z,55.93
2018-10-17T13:49:58.602Z,46.90
2018-10-17T13:52:27.983Z,60.90
2018-10-17T13:54:57.506Z,54.13
2018-10-17T13:57:26.633Z,42.97
2018-10-17T13:59:56.299Z,46.63
2018-10-17T14:02:25.529Z,58.47
2018-10-17T14:04:55.783Z,43.63
2018-10-17T14:07:25.960Z,49.13
2018-10-17T14:09:56.364Z,44.93
2018-10-17T14:12:26.514Z,64.90
2018-10-17T14:14:56.991Z,56.37
2018-10-17T14:17:26.025Z,46.77
2018-10-17T14:19:56.994Z,64.43
2018-10-17T14:22:26.560Z,49.47
2018-10-17T14:24:55.568Z,44.40
2018-10-17T14:27:25.961Z,55.40
2018-10-17T14:29:55.945Z,55.00
2018-10-17T14:32:24.915Z,56.10
2018-10-17T14:34:54.302Z,54.17
2018-10-17T14:37:24.188Z,43.03
2018-10-17T14:39:53.004Z,55.33
2018-10-17T14:42:23.095Z,52.20
2018-10-17T14:44:51.882Z,52.97
2018-10-17T14:47:20.707Z,51.47
2018-10-17T14:49:49.791Z,47.10
2018-10-17T14:52:18.603Z,54.40
2018-10-17T14:54:47.539Z,63.53
2018-10-17T14:57:18.010Z,61.00
2018-10-17T14:59:47.635Z,49.93
2018-10-17T15:02:17.483Z,58.53
2018-10-17T15:04:47.338Z,50.13
2018-10-17T15:07:17.093Z,69.93
2018-10-17T15:09:47.574Z,50.67
2018-10-17T15:12:18.263Z,56.33
2018-10-17T15:14:47.671Z,52.10
2018-10-17T15:17:17.513Z,60.87
2018-10-17T15:19:47.285Z,49.83
2018-10-17T15:22:17.368Z,56.30
2018-10-17T15:24:46.547Z,62.93
2018-10-17T15:27:16.849Z,51.67
2018-10-17T15:29:47.099Z,70.00
2018-10-17T15:32:16.372Z,54.23
2018-10-17T15:34:46.763Z,56.60
2018-10-17T15:37:17.931Z,63.23
2018-10-17T15:39:48.684Z,45.23
2018-10-17T15:42:18.413Z,51.47
2018-10-17T15:44:48.647Z,49.43
2018-10-17T15:47:18.335Z,59.60
2018-10-17T15:49:48.878Z,59.67
2018-10-17T15:52:18.355Z,57.20
2018-10-17T15:54:48.844Z,51.70
2018-10-17T15:57:18.765Z,72.83
2018-10-17T15:59:48.987Z,59.67
2018-10-17T16:02:19.994Z,58.57
2018-10-17T16:04:50.390Z,63.90
2018-10-17T16:07:20.204Z,74.83
2018-10-17T16:09:50.417Z,64.67
2018-10-17T16:12:19.502Z,49.77
2018-10-17T16:14:50.041Z,67.83
2018-10-17T16:17:19.658Z,62.80
2018-10-17T16:19:49.228Z,70.80
2018-10-17T16:22:18.814Z,67.03
2018-10-17T16:24:47.931Z,55.60
2018-10-17T16:27:17.027Z,50.10
2018-10-17T16:29:47.107Z,60.10
2018-10-17T16:32:16.728Z,59.87
2018-10-17T16:34:46.390Z,61.67
2018-10-17T16:37:15.384Z,51.87
2018-10-17T16:39:44.790Z,61.43
2018-10-17T16:42:14.711Z,52.13
2018-10-17T16:44:44.106Z,57.47
2018-10-17T16:47:14.266Z,57.33
2018-10-17T16:49:43.096Z,67.57
2018-10-17T16:52:11.910Z,51.80
2018-10-17T16:54:41.326Z,84.27
2018-10-17T16:57:12.153Z,60.40
2018-10-17T16:59:41.751Z,66.07
2018-10-17T17:02:12.428Z,77.40
2018-10-17T17:04:42.986Z,55.40
2018-10-17T17:07:13.379Z,56.33
2018-10-17T17:09:43.367Z,76.13
2018-10-17T17:12:12.281Z,54.10
2018-10-17T17:14:41.331Z,54.60
2018-10-17T17:17:10.545Z,57.13
2018-10-17T17:19:40.152Z,50.73
2018-10-17T17:22:10.568Z,67.50
2018-10-17T17:24:40.930Z,55.67
2018-10-17T17:27:10.532Z,50.30
2018-10-17T17:29:40.302Z,61.90
2018-10-17T17:32:11.401Z,76.13
2018-10-17T17:34:41.647Z,56.53
2018-10-17T17:37:11.492Z,59.30
2018-10-17T17:39:41.394Z,62.70
2018-10-17T17:42:11.334Z,51.97
2018-10-17T17:44:41.188Z,76.30
2018-10-17T17:47:10.803Z,61.90
2018-10-17T17:49:40.580Z,58.17
2018-10-17T17:52:10.715Z,69.90
2018-10-17T17:54:39.731Z,63.93
2018-10-17T17:57:09.142Z,66.70
2018-10-17T17:59:38.750Z,73.07
2018-10-17T18:02:08.946Z,60.63
2018-10-17T18:04:39.585Z,61.53
2018-10-17T18:07:08.956Z,71.87
2018-10-17T18:09:38.817Z,70.30
2018-10-17T18:12:08.750Z,75.90
2018-10-17T18:14:38.225Z,80.73
2018-10-17T18:17:07.363Z,80.67
2018-10-17T18:19:37.198Z,82.03
2018-10-17T18:22:06.212Z,74.83
2018-10-17T18:24:35.187Z,69.43
2018-10-17T18:27:04.639Z,63.00
2018-10-17T18:29:33.345Z,83.17
2018-10-17T18:32:02.743Z,76.70
2018-10-17T18:34:31.920Z,92.43
2018-10-17T18:37:00.888Z,63.50
2018-10-17T18:39:30.247Z,72.07
2018-10-17T18:41:59.620Z,76.33
2018-10-17T18:44:28.662Z,66.93
2018-10-17T18:46:58.313Z,67.27
2018-10-17T18:49:29.845Z,65.67
2018-10-17T18:52:00.011Z,76.17
2018-10-17T18:54:29.906Z,66.37
2018-10-17T18:56:59.946Z,64.90
2018-10-17T18:59:30.996Z,76.77
2018-10-17T19:02:00.127Z,68.97
2018-10-17T19:04:30.160Z,78.87
2018-10-17T19:07:00.156Z,75.97
2018-10-17T19:09:29.766Z,62.63
2018-10-17T19:11:59.606Z,80.23
2018-10-17T19:14:29.793Z,81.87
2018-10-17T19:17:00.052Z,66.60
2018-10-17T19:19:29.367Z,74.87
2018-10-17T19:21:58.766Z,66.70
2018-10-17T19:24:27.847Z,67.97
2018-10-17T19:26:57.043Z,68.00
2018-10-17T19:29:26.318Z,76.53
2018-10-17T19:31:55.258Z,74.53
2018-10-17T19:34:24.207Z,67.67
2018-10-17T19:36:53.301Z,71.97
2018-10-17T19:39:22.846Z,68.73
2018-10-17T19:41:52.082Z,64.97
2018-10-17T19:44:21.042Z,74.87
2018-10-17T19:46:50.058Z,91.63
2018-10-17T19:49:19.168Z,68.23
2018-10-17T19:51:48.384Z,96.77
2018-10-17T19:54:19.890Z,65.63
2018-10-17T19:56:48.904Z,76.80
2018-10-17T19:59:18.341Z,67.37
2018-10-17T20:01:48.869Z,68.43
2018-10-17T20:04:20.188Z,76.27
2018-10-17T20:06:50.089Z,71.80
2018-10-17T20:09:20.607Z,92.07
2018-10-17T20:11:51.115Z,86.50
2018-10-17T20:14:20.884Z,65.07
2018-10-17T20:16:50.046Z,72.40
2018-10-17T20:19:20.294Z,64.13
2018-10-17T20:21:50.437Z,83.07
2018-10-17T20:24:21.725Z,62.63
2018-10-17T20:26:51.564Z,73.37
2018-10-17T20:29:22.261Z,63.13
2018-10-17T20:31:53.006Z,88.93
2018-10-17T20:34:22.392Z,81.67
2018-10-17T20:36:52.000Z,78.00
2018-10-17T20:39:21.263Z,73.50
2018-10-17T20:41:50.895Z,68.33
2018-10-17T20:44:21.540Z,83.47
2018-10-17T20:46:52.365Z,66.83
2018-10-17T20:49:22.368Z,63.57
2018-10-17T20:51:52.529Z,66.63
2018-10-17T20:54:23.141Z,92.27
2018-10-17T20:56:52.323Z,75.53
2018-10-17T20:59:21.960Z,94.57
2018-10-17T21:01:51.218Z,95.67
2018-10-17T21:04:20.771Z,69.00
2018-10-17T21:06:50.238Z,68.73
2018-10-17T21:09:19.246Z,70.17
2018-10-17T21:11:48.302Z,69.63
2018-10-17T21:14:17.680Z,72.70
2018-10-17T21:16:47.724Z,71.83
2018-10-17T21:19:18.887Z,88.53
2018-10-17T21:21:47.821Z,71.07
2018-10-17T21:24:17.923Z,78.23
2018-10-17T21:26:47.694Z,76.63
2018-10-17T21:29:16.742Z,71.10
2018-10-17T21:31:45.878Z,74.40
2018-10-17T21:34:15.497Z,64.53
2018-10-17T21:36:44.715Z,75.60
2018-10-17T21:39:14.836Z,71.07
2018-10-17T21:41:44.378Z,67.03
2018-10-17T21:44:14.236Z,68.70
2018-10-17T21:46:43.720Z,74.40
2018-10-17T21:49:14.037Z,65.60
2018-10-17T21:51:43.566Z,68.07
2018-10-17T21:54:12.669Z,74.17
2018-10-17T21:56:42.411Z,69.00
2018-10-17T21:59:11.425Z,87.73
2018-10-17T22:01:41.320Z,76.10
2018-10-17T22:04:10.305Z,66.83
2018-10-17T22:06:39.205Z,72.47
2018-10-17T22:09:10.918Z,68.77
2018-10-17T22:11:39.857Z,75.97
2018-10-17T22:14:09.474Z,77.80
2018-10-17T22:16:43.527Z,74.20
2018-10-17T22:19:12.949Z,70.57
2018-10-17T22:21:41.935Z,68.07
2018-10-17T22:24:11.263Z,69.87
2018-10-17T22:26:40.770Z,75.00
2018-10-17T22:29:09.756Z,77.33
2018-10-17T22:31:38.707Z,78.43
2018-10-17T22:34:08.638Z,71.87
2018-10-17T22:36:38.896Z,69.17
2018-10-17T22:39:12.839Z,82.07
2018-10-17T22:41:43.435Z,65.47
2018-10-17T22:44:13.214Z,78.03
2018-10-17T22:46:42.756Z,69.77
2018-10-17T22:49:12.186Z,72.20
2018-10-17T22:51:41.149Z,78.43
2018-10-17T22:54:10.741Z,70.93
2018-10-17T22:56:40.461Z,72.57
2018-10-17T22:59:09.871Z,74.90
2018-10-17T23:01:40.215Z,70.70
2018-10-17T23:04:10.622Z,72.47
2018-10-17T23:06:40.470Z,72.83
2018-10-17T23:09:12.389Z,73.33
2018-10-17T23:11:42.157Z,72.30
2018-10-17T23:14:12.083Z,79.43
2018-10-17T23:16:41.874Z,82.00
2018-10-17T23:19:12.874Z,71.97
2018-10-17T23:21:44.061Z,70.73
2018-10-17T23:24:13.210Z,71.10
2018-10-17T23:26:43.080Z,72.30
2018-10-17T23:29:12.710Z,71.97
2018-10-17T23:31:41.803Z,67.43
2018-10-17T23:34:11.532Z,60.67
2018-10-17T23:36:41.453Z,72.30
2018-10-17T23:39:10.999Z,62.90
2018-10-17T23:41:41.321Z,72.30
2018-10-17T23:44:11.005Z,67.23
2018-10-17T23:46:40.934Z,63.23
2018-10-17T23:49:09.947Z,72.53
2018-10-17T23:51:40.018Z,65.20
2018-10-17T23:54:09.063Z,75.50
2018-10-17T23:56:38.217Z,65.97
2018-10-17T23:59:07.804Z,64.80
